Weather at Altona Municipal Airport

Public forecast

Using degrees Celsius for public forecast. Weather courtesy of forecast.io.

Closest aviation weather report (METAR) to Altona Municipal Airport

Closest report is Walhalla Municipal Airport, 17.2 nm (31.9 km) WSW. Retrieved 2021/01/16 11:35 UTC (4 minutes ago):

K96D 161135Z AUTO 00000KT 10SM FEW014 M11/M11 A2994 RMK AO2

Closest aviation forecast (TAF) to Altona Municipal Airport

Closest forecast is Winnipeg / James Armstrong Richardson International Airport, 50.3 nm (93.1 km) NNE. Retrieved 2021/01/16 06:42 UTC (5 hours ago):

TAF CYWG 160539Z 1606/1706 01006KT P6SM SCT003 BKN100 OVC200 TEMPO 1606/1608 2SM IC BR BKN003 FM160800 18008KT P6SM SCT003 OVC010 TEMPO 1608/1624 2SM IC BR OVC003 PROB30 1609/1618 3/4SM BR OVC002 FM170000 16008KT P6SM SCT012 BKN060 TEMPO 1700/1706 SCT006 BKN012 OVC060 RMK NXT FCST BY 161200Z